sensor_id;sensor_type;location;lat;lon;timestamp;P1;durP1;ratioP1;P2;durP2;ratioP2
3401;SDS011;1714;49.756;8.610;2023-10-13T00:08:25;15.40;;;5.75;;
3401;SDS011;1714;49.756;8.610;2023-10-13T00:19:00;18.63;;;5.90;;
3401;SDS011;1714;49.756;8.610;2023-10-13T00:29:35;13.07;;;4.78;;
3401;SDS011;1714;49.756;8.610;2023-10-13T00:40:11;10.70;;;5.07;;
3401;SDS011;1714;49.756;8.610;2023-10-13T00:51:12;12.02;;;5.05;;
3401;SDS011;1714;49.756;8.610;2023-10-13T01:02:08;7.75;;;4.53;;
3401;SDS011;1714;49.756;8.610;2023-10-13T01:13:01;11.30;;;5.93;;
3401;SDS011;1714;49.756;8.610;2023-10-13T01:23:37;10.25;;;4.63;;
3401;SDS011;1714;49.756;8.610;2023-10-13T01:34:16;14.15;;;6.28;;
3401;SDS011;1714;49.756;8.610;2023-10-13T01:44:58;15.35;;;5.53;;
3401;SDS011;1714;49.756;8.610;2023-10-13T01:55:40;13.13;;;5.97;;
3401;SDS011;1714;49.756;8.610;2023-10-13T02:06:18;15.47;;;6.57;;
3401;SDS011;1714;49.756;8.610;2023-10-13T02:16:58;16.20;;;6.10;;
3401;SDS011;1714;49.756;8.610;2023-10-13T02:27:50;11.60;;;5.50;;
3401;SDS011;1714;49.756;8.610;2023-10-13T02:38:33;12.52;;;6.00;;
3401;SDS011;1714;49.756;8.610;2023-10-13T02:49:26;13.50;;;6.32;;
3401;SDS011;1714;49.756;8.610;2023-10-13T03:00:02;14.68;;;6.38;;
3401;SDS011;1714;49.756;8.610;2023-10-13T03:10:46;14.05;;;6.63;;
3401;SDS011;1714;49.756;8.610;2023-10-13T03:21:23;11.50;;;5.55;;
3401;SDS011;1714;49.756;8.610;2023-10-13T03:32:04;9.70;;;5.90;;
3401;SDS011;1714;49.756;8.610;2023-10-13T03:42:49;9.82;;;5.90;;
3401;SDS011;1714;49.756;8.610;2023-10-13T03:53:34;19.05;;;6.40;;
3401;SDS011;1714;49.756;8.610;2023-10-13T04:04:11;15.75;;;5.28;;
3401;SDS011;1714;49.756;8.610;2023-10-13T04:14:46;16.33;;;5.40;;
3401;SDS011;1714;49.756;8.610;2023-10-13T04:25:47;17.85;;;7.30;;
3401;SDS011;1714;49.756;8.610;2023-10-13T04:36:25;16.53;;;5.47;;
3401;SDS011;1714;49.756;8.610;2023-10-13T04:47:00;9.77;;;5.53;;
3401;SDS011;1714;49.756;8.610;2023-10-13T04:57:36;15.52;;;4.85;;
3401;SDS011;1714;49.756;8.610;2023-10-13T05:08:20;14.32;;;4.45;;
3401;SDS011;1714;49.756;8.610;2023-10-13T05:19:17;8.68;;;4.65;;
3401;SDS011;1714;49.756;8.610;2023-10-13T05:30:10;8.95;;;4.07;;
3401;SDS011;1714;49.756;8.610;2023-10-13T05:41:05;9.73;;;4.18;;
3401;SDS011;1714;49.756;8.610;2023-10-13T05:51:59;10.27;;;4.20;;
3401;SDS011;1714;49.756;8.610;2023-10-13T06:02:53;12.20;;;5.05;;
3401;SDS011;1714;49.756;8.610;2023-10-13T06:13:46;14.57;;;4.30;;
3401;SDS011;1714;49.756;8.610;2023-10-13T06:24:40;8.07;;;4.72;;
3401;SDS011;1714;49.756;8.610;2023-10-13T06:35:33;7.80;;;4.20;;
3401;SDS011;1714;49.756;8.610;2023-10-13T06:46:12;9.05;;;4.20;;
3401;SDS011;1714;49.756;8.610;2023-10-13T06:56:58;20.55;;;4.40;;
3401;SDS011;1714;49.756;8.610;2023-10-13T07:07:33;13.57;;;3.83;;
3401;SDS011;1714;49.756;8.610;2023-10-13T07:18:07;6.95;;;3.95;;
3401;SDS011;1714;49.756;8.610;2023-10-13T07:28:46;7.35;;;4.22;;
3401;SDS011;1714;49.756;8.610;2023-10-13T07:39:21;8.98;;;4.80;;
3401;SDS011;1714;49.756;8.610;2023-10-13T07:49:58;13.35;;;4.13;;
3401;SDS011;1714;49.756;8.610;2023-10-13T08:00:32;7.80;;;3.22;;
3401;SDS011;1714;49.756;8.610;2023-10-13T08:11:19;8.30;;;3.95;;
3401;SDS011;1714;49.756;8.610;2023-10-13T08:21:58;7.03;;;3.33;;
3401;SDS011;1714;49.756;8.610;2023-10-13T08:32:34;11.73;;;4.22;;
3401;SDS011;1714;49.756;8.610;2023-10-13T08:43:10;7.05;;;3.25;;
3401;SDS011;1714;49.756;8.610;2023-10-13T08:53:46;8.40;;;3.30;;
3401;SDS011;1714;49.756;8.610;2023-10-13T09:04:32;9.05;;;3.45;;
3401;SDS011;1714;49.756;8.610;2023-10-13T09:15:09;9.68;;;4.13;;
3401;SDS011;1714;49.756;8.610;2023-10-13T09:25:48;14.47;;;5.07;;
3401;SDS011;1714;49.756;8.610;2023-10-13T09:36:32;8.13;;;3.97;;
3401;SDS011;1714;49.756;8.610;2023-10-13T09:47:10;12.07;;;4.47;;
3401;SDS011;1714;49.756;8.610;2023-10-13T09:57:54;7.38;;;3.58;;
3401;SDS011;1714;49.756;8.610;2023-10-13T10:08:43;9.50;;;4.20;;
3401;SDS011;1714;49.756;8.610;2023-10-13T10:19:25;7.20;;;3.25;;
3401;SDS011;1714;49.756;8.610;2023-10-13T10:30:05;6.93;;;3.47;;
3401;SDS011;1714;49.756;8.610;2023-10-13T10:51:40;10.75;;;3.20;;
3401;SDS011;1714;49.756;8.610;2023-10-13T11:02:19;7.60;;;3.33;;
3401;SDS011;1714;49.756;8.610;2023-10-13T11:13:05;9.02;;;4.45;;
3401;SDS011;1714;49.756;8.610;2023-10-13T11:23:57;9.73;;;3.75;;
3401;SDS011;1714;49.756;8.610;2023-10-13T11:34:37;7.22;;;3.75;;
3401;SDS011;1714;49.756;8.610;2023-10-13T11:45:15;9.57;;;3.50;;
3401;SDS011;1714;49.756;8.610;2023-10-13T12:06:45;9.32;;;3.28;;
3401;SDS011;1714;49.756;8.610;2023-10-13T12:17:20;7.53;;;3.80;;
3401;SDS011;1714;49.756;8.610;2023-10-13T12:28:10;16.17;;;3.78;;
3401;SDS011;1714;49.756;8.610;2023-10-13T12:38:52;6.28;;;3.25;;
3401;SDS011;1714;49.756;8.610;2023-10-13T12:49:42;16.45;;;3.60;;
3401;SDS011;1714;49.756;8.610;2023-10-13T13:00:24;6.05;;;3.45;;
3401;SDS011;1714;49.756;8.610;2023-10-13T13:11:00;9.48;;;3.92;;
3401;SDS011;1714;49.756;8.610;2023-10-13T13:21:37;11.30;;;3.97;;
3401;SDS011;1714;49.756;8.610;2023-10-13T13:32:12;11.05;;;3.83;;
3401;SDS011;1714;49.756;8.610;2023-10-13T13:42:59;8.30;;;3.50;;
3401;SDS011;1714;49.756;8.610;2023-10-13T13:53:35;14.43;;;3.78;;
3401;SDS011;1714;49.756;8.610;2023-10-13T14:04:12;13.00;;;3.73;;
3401;SDS011;1714;49.756;8.610;2023-10-13T14:14:51;7.22;;;3.33;;
3401;SDS011;1714;49.756;8.610;2023-10-13T14:25:32;14.55;;;3.67;;
3401;SDS011;1714;49.756;8.610;2023-10-13T14:36:11;5.97;;;3.58;;
3401;SDS011;1714;49.756;8.610;2023-10-13T14:46:50;10.52;;;3.67;;
3401;SDS011;1714;49.756;8.610;2023-10-13T14:57:28;6.38;;;3.20;;
3401;SDS011;1714;49.756;8.610;2023-10-13T15:08:04;11.63;;;3.38;;
3401;SDS011;1714;49.756;8.610;2023-10-13T15:18:40;8.10;;;3.73;;
3401;SDS011;1714;49.756;8.610;2023-10-13T15:29:16;8.60;;;3.65;;
3401;SDS011;1714;49.756;8.610;2023-10-13T15:39:51;11.18;;;3.38;;
3401;SDS011;1714;49.756;8.610;2023-10-13T15:50:26;6.38;;;3.13;;
3401;SDS011;1714;49.756;8.610;2023-10-13T16:01:04;7.10;;;3.20;;
3401;SDS011;1714;49.756;8.610;2023-10-13T16:11:40;6.25;;;3.28;;
3401;SDS011;1714;49.756;8.610;2023-10-13T16:22:16;7.72;;;3.22;;
3401;SDS011;1714;49.756;8.610;2023-10-13T16:32:52;9.82;;;3.03;;
3401;SDS011;1714;49.756;8.610;2023-10-13T16:43:27;7.78;;;2.80;;
3401;SDS011;1714;49.756;8.610;2023-10-13T16:54:03;10.10;;;3.75;;
3401;SDS011;1714;49.756;8.610;2023-10-13T17:04:39;7.07;;;3.15;;
3401;SDS011;1714;49.756;8.610;2023-10-13T17:15:16;5.63;;;2.78;;
3401;SDS011;1714;49.756;8.610;2023-10-13T17:25:53;23.20;;;5.53;;
3401;SDS011;1714;49.756;8.610;2023-10-13T17:36:28;6.05;;;3.13;;
3401;SDS011;1714;49.756;8.610;2023-10-13T17:47:04;5.68;;;3.08;;
3401;SDS011;1714;49.756;8.610;2023-10-13T17:57:44;6.85;;;3.83;;
3401;SDS011;1714;49.756;8.610;2023-10-13T18:08:21;7.03;;;2.67;;
3401;SDS011;1714;49.756;8.610;2023-10-13T18:18:57;8.70;;;2.90;;
3401;SDS011;1714;49.756;8.610;2023-10-13T18:29:32;7.50;;;2.75;;
3401;SDS011;1714;49.756;8.610;2023-10-13T18:40:12;5.88;;;2.28;;
3401;SDS011;1714;49.756;8.610;2023-10-13T18:50:49;6.55;;;2.47;;
3401;SDS011;1714;49.756;8.610;2023-10-13T19:01:28;4.75;;;2.28;;
3401;SDS011;1714;49.756;8.610;2023-10-13T19:12:04;6.75;;;2.13;;
3401;SDS011;1714;49.756;8.610;2023-10-13T19:22:45;6.10;;;1.92;;
3401;SDS011;1714;49.756;8.610;2023-10-13T19:33:25;3.80;;;2.17;;
3401;SDS011;1714;49.756;8.610;2023-10-13T19:44:01;5.65;;;2.30;;
3401;SDS011;1714;49.756;8.610;2023-10-13T19:54:36;8.05;;;2.40;;
3401;SDS011;1714;49.756;8.610;2023-10-13T20:05:12;6.13;;;2.90;;
3401;SDS011;1714;49.756;8.610;2023-10-13T20:15:51;8.00;;;2.90;;
3401;SDS011;1714;49.756;8.610;2023-10-13T20:26:30;6.80;;;2.63;;
3401;SDS011;1714;49.756;8.610;2023-10-13T20:37:32;6.30;;;2.60;;
3401;SDS011;1714;49.756;8.610;2023-10-13T20:48:08;6.68;;;2.20;;
3401;SDS011;1714;49.756;8.610;2023-10-13T20:58:43;6.97;;;2.22;;
3401;SDS011;1714;49.756;8.610;2023-10-13T21:09:21;5.82;;;2.40;;
3401;SDS011;1714;49.756;8.610;2023-10-13T21:19:56;5.05;;;2.10;;
3401;SDS011;1714;49.756;8.610;2023-10-13T21:30:31;20.90;;;5.35;;
3401;SDS011;1714;49.756;8.610;2023-10-13T21:41:07;5.68;;;2.88;;
3401;SDS011;1714;49.756;8.610;2023-10-13T21:51:42;9.55;;;2.83;;
3401;SDS011;1714;49.756;8.610;2023-10-13T22:02:18;5.95;;;3.08;;
3401;SDS011;1714;49.756;8.610;2023-10-13T22:12:55;4.05;;;2.30;;
3401;SDS011;1714;49.756;8.610;2023-10-13T22:23:31;4.85;;;2.83;;
3401;SDS011;1714;49.756;8.610;2023-10-13T22:34:06;6.22;;;2.63;;
3401;SDS011;1714;49.756;8.610;2023-10-13T22:44:41;7.28;;;3.08;;
3401;SDS011;1714;49.756;8.610;2023-10-13T22:55:16;4.45;;;2.70;;
3401;SDS011;1714;49.756;8.610;2023-10-13T23:05:54;6.50;;;3.27;;
3401;SDS011;1714;49.756;8.610;2023-10-13T23:16:35;7.13;;;3.05;;
3401;SDS011;1714;49.756;8.610;2023-10-13T23:27:10;6.18;;;3.13;;
3401;SDS011;1714;49.756;8.610;2023-10-13T23:37:45;7.32;;;3.60;;
3401;SDS011;1714;49.756;8.610;2023-10-13T23:48:20;6.70;;;3.33;;
3401;SDS011;1714;49.756;8.610;2023-10-13T23:58:57;5.87;;;3.37;;
